Alief, Texas
Current Conditions -  °F | °C
As of 7:53 AM on Friday 28 Nov 2014 (Local Time) from KSGR Reporting Station
Clear Clear  
Wind Chill: 52°   Ceiling: Unl
Heat Index: 52°   Visibility: 10mi
Dew Point: 47°   Wind: 5mph
Humidity: 83%   Direction: 90°E
Pressure: 30.34"   Gusts: NA
Location:  29.71°N, 95.6°W
Report Text: KSGR 281353Z 09004KT 10SM CLR 11/08 A3034 RMK AO2 SLP277 T01110083
Loading
Personal Weather Stations






























Interactive Weather Map New forecast layout! Learn more

10-Day Weather Forecast

Advertisements
Track Severe Weather on mobile